createdAt,value
2019-03-27T00:00:24.944Z,3.80
2019-03-27T00:02:56.204Z,3.80
2019-03-27T00:05:27.256Z,3.80
2019-03-27T00:07:59.412Z,3.80
2019-03-27T00:10:30.467Z,3.80
2019-03-27T00:13:01.336Z,3.80
2019-03-27T00:15:32.344Z,3.70
2019-03-27T00:18:03.215Z,3.70
2019-03-27T00:20:34.156Z,3.70
2019-03-27T00:23:05.248Z,3.70
2019-03-27T00:25:36.052Z,3.60
2019-03-27T00:28:07.229Z,3.60
2019-03-27T00:30:38.272Z,3.60
2019-03-27T00:33:09.188Z,3.70
2019-03-27T00:35:40.413Z,3.70
2019-03-27T00:38:11.353Z,3.70
2019-03-27T00:40:42.135Z,3.80
2019-03-27T00:43:13.245Z,3.80
2019-03-27T00:45:44.094Z,3.70
2019-03-27T00:48:14.996Z,3.70
2019-03-27T00:50:45.656Z,3.60
2019-03-27T00:53:16.544Z,3.60
2019-03-27T00:55:47.417Z,3.50
2019-03-27T00:58:18.408Z,3.50
2019-03-27T01:01:09.538Z,3.50
2019-03-27T01:03:40.415Z,3.50
2019-03-27T01:06:11.515Z,3.40
2019-03-27T01:08:42.257Z,3.40
2019-03-27T01:11:13.400Z,3.40
2019-03-27T01:13:44.011Z,3.50
2019-03-27T01:16:15.038Z,3.40
2019-03-27T01:18:45.793Z,3.40
2019-03-27T01:21:16.356Z,3.30
2019-03-27T01:23:47.672Z,3.40
2019-03-27T01:26:18.242Z,3.40
2019-03-27T01:28:49.079Z,3.20
2019-03-27T01:31:19.912Z,3.20
2019-03-27T01:33:50.740Z,3.10
2019-03-27T01:36:21.532Z,3.10
2019-03-27T01:38:52.528Z,2.90
2019-03-27T01:41:23.420Z,2.90
2019-03-27T01:43:54.260Z,2.80
2019-03-27T01:46:25.086Z,2.70
2019-03-27T01:48:56.028Z,2.60
2019-03-27T01:51:26.855Z,2.50
2019-03-27T01:53:57.949Z,2.50
2019-03-27T01:56:28.760Z,2.40
2019-03-27T01:59:00.102Z,2.60
2019-03-27T02:01:30.660Z,2.70
2019-03-27T02:04:01.532Z,2.80
2019-03-27T02:06:32.409Z,2.90
2019-03-27T02:09:04.152Z,2.70
2019-03-27T02:11:34.955Z,2.50
2019-03-27T02:14:05.851Z,2.40
2019-03-27T02:16:36.883Z,2.30
2019-03-27T02:19:07.944Z,2.30
2019-03-27T02:21:39.955Z,2.30
2019-03-27T02:24:10.784Z,2.30
2019-03-27T02:26:42.452Z,2.40
2019-03-27T02:29:13.326Z,2.40
2019-03-27T02:31:45.564Z,2.50
2019-03-27T02:34:16.888Z,2.30
2019-03-27T02:36:47.488Z,2.30
2019-03-27T02:39:18.335Z,2.40
2019-03-27T02:41:49.150Z,2.50
2019-03-27T02:44:19.982Z,2.70
2019-03-27T02:46:51.772Z,2.60
2019-03-27T02:49:22.621Z,2.60
2019-03-27T02:51:53.977Z,2.50
2019-03-27T02:54:24.885Z,2.40
2019-03-27T02:56:56.431Z,2.40
2019-03-27T02:59:28.253Z,2.30
2019-03-27T03:01:59.439Z,2.30
2019-03-27T03:04:30.370Z,2.20
2019-03-27T03:07:01.213Z,2.20
2019-03-27T03:09:32.856Z,2.10
2019-03-27T03:12:03.691Z,2.10
2019-03-27T03:14:35.229Z,2.00
2019-03-27T03:17:05.905Z,2.10
2019-03-27T03:19:36.750Z,2.10
2019-03-27T03:22:07.552Z,2.20
2019-03-27T03:24:38.406Z,2.20
2019-03-27T03:27:09.487Z,2.20
2019-03-27T03:29:40.297Z,2.00
2019-03-27T03:32:10.921Z,1.90
2019-03-27T03:34:41.952Z,1.90
2019-03-27T03:37:13.117Z,1.80
2019-03-27T03:39:43.676Z,1.80
2019-03-27T03:42:14.393Z,1.80
2019-03-27T03:44:45.646Z,1.70
2019-03-27T03:47:16.686Z,1.70
2019-03-27T03:49:50.632Z,1.70
2019-03-27T03:52:22.208Z,1.70
2019-03-27T03:54:54.165Z,1.80
2019-03-27T03:57:26.588Z,1.80
2019-03-27T03:59:59.621Z,1.80
2019-03-27T04:02:32.136Z,1.80
2019-03-27T04:05:04.879Z,1.90
2019-03-27T04:07:35.489Z,2.00
2019-03-27T04:10:06.836Z,2.10
2019-03-27T04:12:37.661Z,2.10
2019-03-27T04:15:08.813Z,2.20
2019-03-27T04:17:40.284Z,2.40
2019-03-27T04:20:11.413Z,2.50
2019-03-27T04:22:41.975Z,2.60
2019-03-27T04:25:12.984Z,2.60
2019-03-27T04:27:43.566Z,2.80
2019-03-27T04:30:14.517Z,2.90
2019-03-27T04:32:45.104Z,3.00
2019-03-27T04:35:16.968Z,3.00
2019-03-27T04:37:47.808Z,3.00
2019-03-27T04:40:19.077Z,3.00
2019-03-27T04:42:49.861Z,3.10
2019-03-27T04:45:21.182Z,3.00
2019-03-27T04:47:52.221Z,3.10
2019-03-27T04:50:22.892Z,3.00
2019-03-27T04:52:54.157Z,2.90
2019-03-27T04:55:26.233Z,2.80
2019-03-27T04:57:57.304Z,2.80
2019-03-27T05:00:28.195Z,2.80
2019-03-27T05:02:58.823Z,2.80
2019-03-27T05:05:29.432Z,2.70
2019-03-27T05:07:59.998Z,2.70
2019-03-27T05:10:32.304Z,2.70
2019-03-27T05:13:03.092Z,2.70
2019-03-27T05:15:33.702Z,2.70
2019-03-27T05:18:04.348Z,2.80
2019-03-27T05:20:35.191Z,2.80
2019-03-27T05:23:05.767Z,3.00
2019-03-27T05:25:36.600Z,3.20
2019-03-27T05:28:07.870Z,3.40
2019-03-27T05:30:38.723Z,3.50
2019-03-27T05:33:09.728Z,3.80
2019-03-27T05:35:40.828Z,4.00
2019-03-27T05:38:11.854Z,4.20
2019-03-27T05:40:43.791Z,4.30
2019-03-27T05:43:14.606Z,4.50
2019-03-27T05:45:45.624Z,4.60
2019-03-27T05:48:16.892Z,4.70
2019-03-27T05:50:47.506Z,4.70
2019-03-27T05:53:18.313Z,4.70
2019-03-27T05:55:48.981Z,4.60
2019-03-27T05:58:20.022Z,4.60
2019-03-27T06:00:50.651Z,4.70
2019-03-27T06:03:21.220Z,4.80
2019-03-27T06:05:52.493Z,5.00
2019-03-27T06:08:23.071Z,5.10
2019-03-27T06:10:53.922Z,5.10
2019-03-27T06:13:25.422Z,5.20
2019-03-27T06:15:56.272Z,5.20
2019-03-27T06:18:26.917Z,5.20
2019-03-27T06:20:58.097Z,5.30
2019-03-27T06:23:28.731Z,5.40
2019-03-27T06:25:59.826Z,5.50
2019-03-27T06:28:30.777Z,5.60
2019-03-27T06:31:01.384Z,5.60
2019-03-27T06:33:32.515Z,5.60
2019-03-27T06:36:03.077Z,5.50
2019-03-27T06:38:34.622Z,5.60
2019-03-27T06:41:05.181Z,5.60
2019-03-27T06:43:36.048Z,5.60
2019-03-27T06:46:07.767Z,5.70
2019-03-27T06:48:38.620Z,5.70
2019-03-27T06:51:09.228Z,5.60
2019-03-27T06:53:40.061Z,5.70
2019-03-27T06:56:10.722Z,5.80
2019-03-27T06:58:54.088Z,6.00
2019-03-27T07:01:14.739Z,6.10
2019-03-27T07:03:45.552Z,6.20
2019-03-27T07:06:16.676Z,6.20
2019-03-27T07:08:47.801Z,6.30
2019-03-27T07:11:18.664Z,6.20
2019-03-27T07:13:49.229Z,6.30
2019-03-27T07:16:19.860Z,6.20
2019-03-27T07:18:50.908Z,6.10
2019-03-27T07:21:21.916Z,6.00
2019-03-27T07:23:52.477Z,6.10
2019-03-27T07:26:23.569Z,6.20
2019-03-27T07:28:54.367Z,6.10
2019-03-27T07:31:24.983Z,6.10
2019-03-27T07:33:55.769Z,6.20
2019-03-27T07:36:26.625Z,6.40
2019-03-27T07:39:10.205Z,6.50
2019-03-27T07:41:29.728Z,6.70
2019-03-27T07:44:00.762Z,6.90
2019-03-27T07:46:32.109Z,7.00
2019-03-27T07:49:03.377Z,7.10
2019-03-27T07:51:34.205Z,7.20
2019-03-27T07:54:05.477Z,7.40
2019-03-27T07:56:36.577Z,7.40
2019-03-27T07:59:07.404Z,7.40
2019-03-27T08:01:38.254Z,7.60
2019-03-27T08:04:09.310Z,7.70
2019-03-27T08:06:40.880Z,7.80
2019-03-27T08:09:11.764Z,7.90
2019-03-27T08:11:42.709Z,8.00
2019-03-27T08:14:13.519Z,8.30
2019-03-27T08:16:44.128Z,8.50
2019-03-27T08:19:14.915Z,8.60
2019-03-27T08:21:45.768Z,8.40
2019-03-27T08:24:16.339Z,7.90
2019-03-27T08:26:47.178Z,7.90
2019-03-27T08:29:18.048Z,8.00
2019-03-27T08:31:48.898Z,8.00
2019-03-27T08:34:19.979Z,8.30
2019-03-27T08:36:50.760Z,8.30
2019-03-27T08:39:21.791Z,8.30
2019-03-27T08:41:52.346Z,8.50
2019-03-27T08:44:22.956Z,8.60
2019-03-27T08:46:54.052Z,8.60
2019-03-27T08:49:25.091Z,8.60
2019-03-27T08:51:55.917Z,8.50
2019-03-27T08:54:26.721Z,8.60
2019-03-27T08:56:58.580Z,8.70
2019-03-27T08:59:29.399Z,8.80
2019-03-27T09:02:00.253Z,9.10
2019-03-27T09:04:31.283Z,9.30
2019-03-27T09:07:02.120Z,9.20
2019-03-27T09:09:33.280Z,9.40
2019-03-27T09:12:04.082Z,9.80
2019-03-27T09:14:35.060Z,9.70
2019-03-27T09:17:06.336Z,9.30
2019-03-27T09:19:36.898Z,9.20
2019-03-27T09:22:07.746Z,9.10
2019-03-27T09:24:38.407Z,9.20
2019-03-27T09:27:09.016Z,9.20
2019-03-27T09:29:39.799Z,9.20
2019-03-27T09:32:10.928Z,9.10
2019-03-27T09:34:41.736Z,8.90
2019-03-27T09:37:12.565Z,8.60
2019-03-27T09:39:43.205Z,8.60
2019-03-27T09:42:14.053Z,8.80
2019-03-27T09:44:44.951Z,8.70
2019-03-27T09:47:15.855Z,8.60
2019-03-27T09:49:49.726Z,8.60
2019-03-27T09:52:18.720Z,8.70
2019-03-27T09:54:49.576Z,9.00
2019-03-27T09:57:20.356Z,9.10
2019-03-27T09:59:51.183Z,9.10
2019-03-27T10:02:22.040Z,9.20
2019-03-27T10:04:55.833Z,9.50
2019-03-27T10:07:25.627Z,9.60
2019-03-27T10:09:57.530Z,9.90
2019-03-27T10:12:28.089Z,10.10
2019-03-27T10:14:58.925Z,10.10
2019-03-27T10:17:29.804Z,10.00
2019-03-27T10:20:03.579Z,9.80
2019-03-27T10:22:32.974Z,9.80
2019-03-27T10:25:03.861Z,9.50
2019-03-27T10:27:34.936Z,9.20
2019-03-27T10:30:06.672Z,9.30
2019-03-27T10:32:37.737Z,9.50
2019-03-27T10:35:08.687Z,9.60
2019-03-27T10:37:39.554Z,9.40
2019-03-27T10:40:10.734Z,9.40
2019-03-27T10:42:41.724Z,9.40
2019-03-27T10:45:12.696Z,9.30
2019-03-27T10:47:44.693Z,9.20
2019-03-27T10:50:17.976Z,9.30
2019-03-27T10:52:48.225Z,9.60
2019-03-27T10:55:18.845Z,9.70
2019-03-27T10:57:49.916Z,9.70
2019-03-27T11:00:21.020Z,9.70
2019-03-27T11:02:52.154Z,9.60
2019-03-27T11:05:22.709Z,9.60
2019-03-27T11:07:53.473Z,9.80
2019-03-27T11:10:24.184Z,10.10
2019-03-27T11:12:55.571Z,10.20
2019-03-27T11:15:26.713Z,10.10
2019-03-27T11:17:57.520Z,10.10
2019-03-27T11:20:31.230Z,10.20
2019-03-27T11:23:00.861Z,10.20
2019-03-27T11:25:33.090Z,10.00
2019-03-27T11:28:03.983Z,9.90
2019-03-27T11:30:41.945Z,9.90
2019-03-27T11:33:12.565Z,10.00
2019-03-27T11:35:43.196Z,10.00
2019-03-27T11:38:14.529Z,10.10
2019-03-27T11:40:45.173Z,10.20
2019-03-27T11:43:15.732Z,10.30
2019-03-27T11:45:48.912Z,10.40
2019-03-27T11:48:19.889Z,10.40
2019-03-27T11:50:50.517Z,10.50
2019-03-27T11:53:21.784Z,10.50
2019-03-27T11:55:52.819Z,10.60
2019-03-27T11:58:24.624Z,10.50
2019-03-27T12:00:55.327Z,10.50
2019-03-27T12:03:26.119Z,10.60
2019-03-27T12:05:56.739Z,10.60
2019-03-27T12:08:27.305Z,10.60
2019-03-27T12:10:57.924Z,10.70
2019-03-27T12:13:28.728Z,10.80
2019-03-27T12:15:59.612Z,10.70
2019-03-27T12:18:32.249Z,10.60
2019-03-27T12:21:03.311Z,10.70
2019-03-27T12:23:34.396Z,10.60
2019-03-27T12:26:05.083Z,10.80
2019-03-27T12:28:35.913Z,11.00
2019-03-27T12:31:06.801Z,11.10
2019-03-27T12:33:37.725Z,11.10
2019-03-27T12:36:08.626Z,11.00
2019-03-27T12:38:39.457Z,10.80
2019-03-27T12:41:10.500Z,10.70
2019-03-27T12:43:41.648Z,10.70
2019-03-27T12:46:12.561Z,10.50
2019-03-27T12:48:43.208Z,10.40
2019-03-27T12:51:14.087Z,10.50
2019-03-27T12:53:45.600Z,10.70
2019-03-27T12:56:16.216Z,10.70
2019-03-27T12:58:47.304Z,10.70
2019-03-27T13:01:18.325Z,10.60
2019-03-27T13:03:49.160Z,10.60
2019-03-27T13:06:19.736Z,10.90
2019-03-27T13:08:50.856Z,10.80
2019-03-27T13:11:21.897Z,10.70
2019-03-27T13:13:52.763Z,10.60
2019-03-27T13:16:23.340Z,10.60
2019-03-27T13:18:54.206Z,10.60
2019-03-27T13:21:26.881Z,10.60
2019-03-27T13:23:57.969Z,10.80
2019-03-27T13:26:28.791Z,10.90
2019-03-27T13:28:59.488Z,10.90
2019-03-27T13:31:30.547Z,10.90
2019-03-27T13:34:01.476Z,10.80
2019-03-27T13:36:32.376Z,10.80
2019-03-27T13:39:05.797Z,10.80
2019-03-27T13:41:36.421Z,10.90
2019-03-27T13:44:07.260Z,10.90
2019-03-27T13:46:38.152Z,10.80
2019-03-27T13:49:08.976Z,10.80
2019-03-27T13:51:41.176Z,10.80
2019-03-27T13:54:12.536Z,10.60
2019-03-27T13:56:43.095Z,10.60
2019-03-27T13:59:14.089Z,10.70
2019-03-27T14:01:45.017Z,10.80
2019-03-27T14:04:16.049Z,10.90
2019-03-27T14:06:46.925Z,11.00
2019-03-27T14:09:17.753Z,10.90
2019-03-27T14:11:48.644Z,10.90
2019-03-27T14:14:19.508Z,10.90
2019-03-27T14:16:50.300Z,10.80
2019-03-27T14:19:21.385Z,10.70
2019-03-27T14:21:54.745Z,10.70
2019-03-27T14:24:25.213Z,10.70
2019-03-27T14:26:56.250Z,10.70
2019-03-27T14:29:27.349Z,10.80
2019-03-27T14:31:58.696Z,10.90
2019-03-27T14:34:29.552Z,10.90
2019-03-27T14:37:00.384Z,10.90
2019-03-27T14:39:31.312Z,10.50
2019-03-27T14:42:02.124Z,10.50
2019-03-27T14:44:33.083Z,10.30
2019-03-27T14:47:04.198Z,10.20
2019-03-27T14:49:37.576Z,10.20
2019-03-27T14:52:08.910Z,10.30
2019-03-27T14:54:39.585Z,10.10
2019-03-27T14:57:10.664Z,10.20
2019-03-27T14:59:41.515Z,10.10
2019-03-27T15:02:12.100Z,10.10
2019-03-27T15:04:42.997Z,10.10
2019-03-27T15:07:13.884Z,10.20
2019-03-27T15:09:44.501Z,10.20
2019-03-27T15:12:15.139Z,10.30
2019-03-27T15:14:46.046Z,10.30
2019-03-27T15:17:17.585Z,10.40
2019-03-27T15:19:49.320Z,10.30
2019-03-27T15:22:22.742Z,10.20
2019-03-27T15:24:55.284Z,10.20
2019-03-27T15:27:25.950Z,10.00
2019-03-27T15:29:56.637Z,10.00
2019-03-27T15:32:27.946Z,10.00
2019-03-27T15:34:58.819Z,10.10
2019-03-27T15:37:29.623Z,10.10
2019-03-27T15:40:00.769Z,9.90
2019-03-27T15:42:33.327Z,9.80
2019-03-27T15:45:05.064Z,9.70
2019-03-27T15:47:37.489Z,9.80
2019-03-27T15:50:08.408Z,9.80
2019-03-27T15:52:39.055Z,9.90
2019-03-27T15:55:10.180Z,10.00
2019-03-27T15:57:41.042Z,10.00
2019-03-27T16:00:13.299Z,10.00
2019-03-27T16:02:44.049Z,10.10
2019-03-27T16:05:14.934Z,10.10
2019-03-27T16:07:45.868Z,10.20
2019-03-27T16:10:18.364Z,10.30
2019-03-27T16:12:49.404Z,10.20
2019-03-27T16:15:20.291Z,10.10
2019-03-27T16:17:51.036Z,10.20
2019-03-27T16:20:21.688Z,10.30
2019-03-27T16:22:52.257Z,10.30
2019-03-27T16:25:23.125Z,10.30
2019-03-27T16:27:53.953Z,10.20
2019-03-27T16:30:24.569Z,10.10
2019-03-27T16:32:55.646Z,10.10
2019-03-27T16:35:26.446Z,10.10
2019-03-27T16:37:57.236Z,10.10
2019-03-27T16:40:50.197Z,10.00
2019-03-27T16:43:20.833Z,10.00
2019-03-27T16:45:51.712Z,9.90
2019-03-27T16:48:22.884Z,10.00
2019-03-27T16:50:54.200Z,9.90
2019-03-27T16:53:25.032Z,10.00
2019-03-27T16:55:56.303Z,10.00
2019-03-27T16:58:26.876Z,9.90
2019-03-27T17:00:57.821Z,9.90
2019-03-27T17:03:29.364Z,9.90
2019-03-27T17:06:00.113Z,9.90
2019-03-27T17:08:31.477Z,9.90
2019-03-27T17:11:02.605Z,9.90
2019-03-27T17:13:34.921Z,9.90
2019-03-27T17:16:05.833Z,9.90
2019-03-27T17:18:36.764Z,9.80
2019-03-27T17:21:07.372Z,9.80
2019-03-27T17:23:38.538Z,9.70
2019-03-27T17:26:10.460Z,9.70
2019-03-27T17:28:41.675Z,9.80
2019-03-27T17:31:12.716Z,9.70
2019-03-27T17:33:43.808Z,9.70
2019-03-27T17:36:14.509Z,9.70
2019-03-27T17:38:45.492Z,9.70
2019-03-27T17:41:16.637Z,9.70
2019-03-27T17:43:47.520Z,9.70
2019-03-27T17:46:18.207Z,9.70
2019-03-27T17:48:49.120Z,9.70
2019-03-27T17:51:20.300Z,9.60
2019-03-27T17:53:51.384Z,9.60
2019-03-27T17:56:22.348Z,9.60
2019-03-27T17:58:53.264Z,9.60
2019-03-27T18:01:25.193Z,9.60
2019-03-27T18:03:57.624Z,9.60
2019-03-27T18:06:28.411Z,9.60
2019-03-27T18:08:59.197Z,9.50
2019-03-27T18:11:29.833Z,9.40
2019-03-27T18:14:02.030Z,9.40
2019-03-27T18:16:33.193Z,9.40
2019-03-27T18:19:04.168Z,9.40
2019-03-27T18:21:36.208Z,9.40
2019-03-27T18:24:07.124Z,9.40
2019-03-27T18:26:38.380Z,9.50
2019-03-27T18:29:09.208Z,9.40
2019-03-27T18:31:40.344Z,9.40
2019-03-27T18:34:11.415Z,9.50
2019-03-27T18:36:42.300Z,9.50
2019-03-27T18:39:13.344Z,9.50
2019-03-27T18:41:44.028Z,9.50
2019-03-27T18:44:15.072Z,9.50
2019-03-27T18:46:45.987Z,9.60
2019-03-27T18:49:17.068Z,9.60
2019-03-27T18:51:48.121Z,9.60
2019-03-27T18:54:19.589Z,9.60
2019-03-27T18:56:50.504Z,9.50
2019-03-27T18:59:21.285Z,9.50
2019-03-27T19:01:52.804Z,9.50
2019-03-27T19:04:23.512Z,9.50
2019-03-27T19:06:58.478Z,9.50
2019-03-27T19:09:27.908Z,9.50
2019-03-27T19:11:59.320Z,9.60
2019-03-27T19:14:30.199Z,9.60
2019-03-27T19:17:02.221Z,9.60
2019-03-27T19:19:32.830Z,9.60
2019-03-27T19:22:03.901Z,9.60
2019-03-27T19:24:34.532Z,9.60
2019-03-27T19:27:05.683Z,9.60
2019-03-27T19:29:36.697Z,9.70
2019-03-27T19:32:08.037Z,9.80
2019-03-27T19:34:38.945Z,9.80
2019-03-27T19:37:10.050Z,9.80
2019-03-27T19:39:41.396Z,9.80
2019-03-27T19:42:12.464Z,9.80
2019-03-27T19:44:43.540Z,9.70
2019-03-27T19:47:14.348Z,9.80
2019-03-27T19:49:45.256Z,9.80
2019-03-27T19:52:17.304Z,9.70
2019-03-27T19:54:47.944Z,9.70
2019-03-27T19:57:19.645Z,9.60
2019-03-27T19:59:51.306Z,9.70
2019-03-27T20:02:22.201Z,9.70
2019-03-27T20:04:53.023Z,9.70
2019-03-27T20:07:35.259Z,9.70
2019-03-27T20:09:56.953Z,9.70
2019-03-27T20:12:27.768Z,9.70
2019-03-27T20:15:11.207Z,9.70
2019-03-27T20:17:31.496Z,9.70
2019-03-27T20:20:02.456Z,9.70
2019-03-27T20:22:33.441Z,9.70
2019-03-27T20:25:04.873Z,9.60
2019-03-27T20:27:35.472Z,9.60
2019-03-27T20:30:07.528Z,9.60
2019-03-27T20:32:38.891Z,9.50
2019-03-27T20:35:09.628Z,9.50
2019-03-27T20:37:41.136Z,9.50
2019-03-27T20:40:12.548Z,9.40
2019-03-27T20:42:43.656Z,9.40
2019-03-27T20:45:14.732Z,9.50
2019-03-27T20:47:45.596Z,9.50
2019-03-27T20:50:16.535Z,9.50
2019-03-27T20:52:47.398Z,9.50
2019-03-27T20:55:29.667Z,9.60
2019-03-27T20:57:51.496Z,9.50
2019-03-27T21:00:22.606Z,9.50
2019-03-27T21:02:53.614Z,9.50
2019-03-27T21:05:24.503Z,9.60
2019-03-27T21:07:55.187Z,9.50
2019-03-27T21:10:25.829Z,9.50
2019-03-27T21:12:57.591Z,9.50
2019-03-27T21:15:28.225Z,9.50
2019-03-27T21:17:58.897Z,9.50
2019-03-27T21:20:29.488Z,9.50
2019-03-27T21:23:00.362Z,9.30
2019-03-27T21:25:31.228Z,9.30
2019-03-27T21:28:02.924Z,9.30
2019-03-27T21:30:33.491Z,9.30
2019-03-27T21:33:04.433Z,9.30
2019-03-27T21:35:35.484Z,9.20
2019-03-27T21:38:06.290Z,9.20
2019-03-27T21:40:37.089Z,9.10
2019-03-27T21:43:08.003Z,9.10
2019-03-27T21:45:38.581Z,9.10
2019-03-27T21:48:09.497Z,9.10
2019-03-27T21:50:40.235Z,9.10
2019-03-27T21:53:11.337Z,9.10
2019-03-27T21:55:43.149Z,9.10
2019-03-27T21:58:15.412Z,9.10
2019-03-27T22:00:46.535Z,9.00
2019-03-27T22:03:17.632Z,9.10
2019-03-27T22:05:48.200Z,9.10
2019-03-27T22:08:19.879Z,9.10
2019-03-27T22:10:50.683Z,9.10
2019-03-27T22:13:21.316Z,9.10
2019-03-27T22:15:52.175Z,9.10
2019-03-27T22:18:23.323Z,9.10
2019-03-27T22:20:54.209Z,9.00
2019-03-27T22:23:25.094Z,9.00
2019-03-27T22:25:55.727Z,9.00
2019-03-27T22:28:26.580Z,9.00
2019-03-27T22:30:57.697Z,9.00
2019-03-27T22:33:28.311Z,9.00
2019-03-27T22:35:58.928Z,9.10
2019-03-27T22:38:29.505Z,9.10
2019-03-27T22:41:00.116Z,9.00
2019-03-27T22:43:30.973Z,9.00
2019-03-27T22:46:01.764Z,9.10
2019-03-27T22:48:32.393Z,9.10
2019-03-27T22:51:02.977Z,9.10
2019-03-27T22:53:33.601Z,9.10
2019-03-27T22:56:04.981Z,9.00
2019-03-27T22:58:35.829Z,9.00
2019-03-27T23:01:06.421Z,9.00
2019-03-27T23:03:39.144Z,9.10
2019-03-27T23:06:09.949Z,9.10
2019-03-27T23:08:40.560Z,9.10
2019-03-27T23:11:11.220Z,9.20
2019-03-27T23:13:42.024Z,9.20
2019-03-27T23:16:13.138Z,9.20
2019-03-27T23:18:43.719Z,9.20
2019-03-27T23:21:14.612Z,9.20
2019-03-27T23:23:45.196Z,9.10
2019-03-27T23:26:16.040Z,9.10
2019-03-27T23:28:46.918Z,9.10
2019-03-27T23:31:17.787Z,9.10
2019-03-27T23:33:49.420Z,9.10
2019-03-27T23:36:20.395Z,9.10
2019-03-27T23:38:50.965Z,9.10
2019-03-27T23:41:22.152Z,9.10
2019-03-27T23:43:52.968Z,9.10
2019-03-27T23:46:23.844Z,9.10
2019-03-27T23:48:54.660Z,9.10
2019-03-27T23:51:25.496Z,9.10
2019-03-27T23:53:56.312Z,9.10
2019-03-27T23:56:27.844Z,9.00
2019-03-27T23:58:59.769Z,9.00
